• Join FlightAware (Why Join?)
  • Login
  • US Flag 
11:32PM EST


 

Airport Tracker/Info


-or-


 

Live Flight TrackerFlight Track Log ✈ CES5160 ✈ 05-Nov-2013 ✈ ZSLG / LYG - ZBAA / PEK

Flight Track Log - Related Links

Times and Time Zones

All times are in EST time to prevent confusion due to time zone crossing. See the CES5160 flight status page for this flight to view local times or setup timezone preferences in your user account.

Time Position Orientation Groundspeed Altitude Reporting Facility
EST Latitude Longitude Course Direction KTS MPH feet Rate Location/Type
09:25AM 36.1052 118.2710 342° North  Level Estimated
09:26AM 36.1818 118.2402 342° North  Level Estimated
09:27AM 36.2584 118.2094 342° North  Level Estimated
09:28AM 36.3350 118.1786 342° North  Level Estimated
09:29AM 36.4116 118.1477 342° North  Level Estimated
09:30AM 36.4882 118.1167 342° North  Level Estimated
09:31AM 36.5647 118.0856 342° North  Level Estimated
09:32AM 36.6413 118.0545 342° North  Level Estimated
09:33AM 36.7178 118.0233 342° North  Level Estimated
09:34AM 36.7943 117.9921 342° North  Level Estimated
09:35AM 36.8709 117.9608 342° North  Level Estimated
09:36AM 36.9474 117.9295 342° North  Level Estimated
09:37AM 37.0239 117.8980 342° North  Level Estimated
09:38AM 37.1004 117.8666 342° North  Level Estimated
09:39AM 37.1769 117.8350 342° North  Level Estimated
09:40AM 37.2534 117.8034 342° North  Level Estimated
09:41AM 37.3298 117.7717 342° North  Level Estimated
09:42AM 37.4063 117.7400 342° North  Level Estimated
09:43AM 37.4828 117.7082 342° North  Level Estimated
09:44AM 37.5592 117.6763 342° North  Level Estimated
09:45AM 37.6357 117.6444 342° North  Level Estimated
09:46AM 37.7121 117.6124 342° North  Level Estimated
09:47AM 37.7885 117.5803 342° North  Level Estimated
09:48AM 37.8649 117.5482 342° North  Level Estimated
09:49AM 37.9413 117.5160 342° North  Level Estimated
09:50AM 38.0177 117.4837 342° North  Level Estimated
09:51AM 38.0941 117.4514 342° North  Level Estimated
09:52AM 38.1705 117.4190 342° North  Level Estimated
09:53AM 38.2469 117.3865 342° North  Level Estimated
09:54AM 38.3232 117.3540 342° North  Level Estimated
09:55AM 38.3996 117.3214 341° North  Level Estimated
09:56AM 38.4759 117.2887 341° North  Level Estimated
09:57AM 38.5523 117.2559 341° North  Level Estimated
09:58AM 38.6286 117.2231 341° North  Level Estimated
09:59AM 38.7049 117.1902 341° North  Level Estimated
10:00AM 38.7812 117.1573 341° North  Level Estimated
10:01AM 38.8576 117.1242 341° North  Level Estimated
10:02AM 38.9338 117.0911 341° North  Level Estimated
10:03AM 39.0101 117.0580 341° North  Level Estimated
10:04AM 39.0864 117.0247 341° North  Level Estimated
10:05AM 39.1627 116.9914 341° North  Level Estimated
10:06AM 39.2389 116.9580 341° North  Level Estimated
10:07AM 39.3151 116.9246 341° North  Level Estimated
10:08AM 39.3914 116.8910 341° North  Level Estimated
10:09AM 39.4676 116.8574 341° North  Level Estimated
10:10AM 39.5438 116.8238 341° North  Level Estimated
10:11AM 39.6200 116.7900 341° North  Level Estimated
10:12AM 39.6941 116.7571 341° North  Level Estimated
10:13AM 39.7683 116.7241 341° North  Level Estimated
10:14AM 39.8424 116.6911 341° North  Level Estimated
10:15AM 39.9165 116.6580 341° North  Level Estimated
10:16AM 39.9906 116.6248 341° North  Level Estimated
10:17AM 40.0647 116.5915 341° North  Level Estimated
10:18AM 40.0801 116.5846 341° North  Level Estimated
10:19AM 40.0801 116.5846 288° West  Level Estimated
10:20AM 40.0801 116.5846 288° West  Level Estimated
10:21AM 40.0801 116.5846 288° West  Level Estimated
10:22AM 40.0801 116.5846 288° West  Level Estimated
10:23AM 40.0801 116.5846 288° West  Level Estimated
10:24AM 40.0801 116.5846 288° West  Level Estimated